createdAt,value
2018-03-02T00:01:34.654Z,6.30
2018-03-02T00:04:02.290Z,6.10
2018-03-02T00:06:29.930Z,7.00
2018-03-02T00:08:58.310Z,6.82
2018-03-02T00:11:26.709Z,6.18
2018-03-02T00:13:54.326Z,6.65
2018-03-02T00:16:22.021Z,6.53
2018-03-02T00:18:49.600Z,6.87
2018-03-02T00:21:17.235Z,6.95
2018-03-02T00:23:44.885Z,5.72
2018-03-02T00:26:12.539Z,6.40
2018-03-02T00:28:40.849Z,6.68
2018-03-02T00:31:08.510Z,6.50
2018-03-02T00:33:36.920Z,5.80
2018-03-02T00:36:05.339Z,6.15
2018-03-02T00:38:33.012Z,6.90
2018-03-02T00:41:00.621Z,6.50
2018-03-02T00:43:28.997Z,5.93
2018-03-02T00:45:56.657Z,6.55
2018-03-02T00:48:24.298Z,5.85
2018-03-02T00:50:51.958Z,5.60
2018-03-02T00:53:19.593Z,5.57
2018-03-02T00:55:47.968Z,5.70
2018-03-02T00:58:16.435Z,6.30
2018-03-02T01:00:44.862Z,6.05
2018-03-02T01:03:12.473Z,6.15
2018-03-02T01:05:40.127Z,6.87
2018-03-02T01:08:07.773Z,6.00
2018-03-02T01:10:35.376Z,6.55
2018-03-02T01:13:03.006Z,6.65
2018-03-02T01:15:30.632Z,7.00
2018-03-02T01:17:59.056Z,6.50
2018-03-02T01:20:26.671Z,5.78
2018-03-02T01:22:55.089Z,6.37
2018-03-02T01:25:22.717Z,6.60
2018-03-02T01:27:51.132Z,6.00
2018-03-02T01:30:18.773Z,5.75
2018-03-02T01:32:47.150Z,6.45
2018-03-02T01:35:14.810Z,6.80
2018-03-02T01:37:42.447Z,6.22
2018-03-02T01:40:10.219Z,6.10
2018-03-02T01:42:37.880Z,5.93
2018-03-02T01:45:05.744Z,6.10
2018-03-02T01:47:33.402Z,6.70
2018-03-02T01:50:01.028Z,6.17
2018-03-02T01:52:28.684Z,6.28
2018-03-02T01:54:56.304Z,5.72
2018-03-02T01:57:23.940Z,5.90
2018-03-02T01:59:51.604Z,6.45
2018-03-02T02:02:20.025Z,6.57
2018-03-02T02:04:47.657Z,6.18
2018-03-02T02:07:16.070Z,5.95
2018-03-02T02:09:43.673Z,6.25
2018-03-02T02:12:11.321Z,5.85
2018-03-02T02:14:38.981Z,5.87
2018-03-02T02:17:06.641Z,6.00
2018-03-02T02:19:34.300Z,5.82
2018-03-02T02:22:01.948Z,5.80
2018-03-02T02:24:30.353Z,6.22
2018-03-02T02:26:57.984Z,6.22
2018-03-02T02:29:26.418Z,5.50
2018-03-02T02:31:54.032Z,5.93
2018-03-02T02:34:21.692Z,5.82
2018-03-02T02:36:49.347Z,6.03
2018-03-02T02:39:17.273Z,5.85
2018-03-02T02:41:45.797Z,5.55
2018-03-02T02:44:13.426Z,5.72
2018-03-02T02:46:41.118Z,6.18
2018-03-02T02:49:08.758Z,6.47
2018-03-02T02:51:36.419Z,5.53
2018-03-02T02:54:04.078Z,5.55
2018-03-02T02:56:31.701Z,5.60
2018-03-02T02:58:59.346Z,6.18
2018-03-02T03:01:27.287Z,5.85
2018-03-02T03:03:54.950Z,5.75
2018-03-02T03:06:22.575Z,5.87
2018-03-02T03:08:51.739Z,5.95
2018-03-02T03:11:19.345Z,6.03
2018-03-02T03:13:46.996Z,6.10
2018-03-02T03:16:14.600Z,5.35
2018-03-02T03:18:43.013Z,6.12
2018-03-02T03:21:10.666Z,5.55
2018-03-02T03:23:38.305Z,5.87
2018-03-02T03:26:05.960Z,5.20
2018-03-02T03:28:33.611Z,5.33
2018-03-02T03:31:01.225Z,5.72
2018-03-02T03:33:29.659Z,5.65
2018-03-02T03:35:58.480Z,5.80
2018-03-02T03:38:26.192Z,5.93
2018-03-02T03:40:53.801Z,6.62
2018-03-02T03:43:21.389Z,6.43
2018-03-02T03:45:49.025Z,5.77
2018-03-02T03:48:16.657Z,5.28
2018-03-02T03:50:44.315Z,5.32
2018-03-02T03:53:12.692Z,5.70
2018-03-02T03:55:40.352Z,5.90
2018-03-02T03:58:08.014Z,5.40
2018-03-02T04:00:36.422Z,5.75
2018-03-02T04:03:04.123Z,5.37
2018-03-02T04:05:32.719Z,5.50
2018-03-02T04:08:00.336Z,5.37
2018-03-02T04:10:28.038Z,6.07
2018-03-02T04:12:55.705Z,5.90
2018-03-02T04:15:23.376Z,6.05
2018-03-02T04:17:51.030Z,5.65
2018-03-02T04:20:18.668Z,6.15
2018-03-02T04:22:47.128Z,5.70
2018-03-02T04:25:14.780Z,5.75
2018-03-02T04:27:42.453Z,5.93
2018-03-02T04:30:10.896Z,5.40
2018-03-02T04:32:38.553Z,5.62
2018-03-02T04:35:06.611Z,5.72
2018-03-02T04:37:34.230Z,5.60
2018-03-02T04:40:01.915Z,5.55
2018-03-02T04:42:29.562Z,5.32
2018-03-02T04:44:57.206Z,6.18
2018-03-02T04:47:24.849Z,5.70
2018-03-02T04:49:52.514Z,5.35
2018-03-02T04:52:20.916Z,5.05
2018-03-02T04:54:48.568Z,5.72
2018-03-02T04:57:16.942Z,5.75
2018-03-02T04:59:45.471Z,5.15
2018-03-02T05:02:13.112Z,5.43
2018-03-02T05:04:40.745Z,5.50
2018-03-02T05:07:09.127Z,5.95
2018-03-02T05:09:38.978Z,4.95
2018-03-02T05:12:06.632Z,5.55
2018-03-02T05:14:35.017Z,5.82
2018-03-02T05:17:02.730Z,5.45
2018-03-02T05:19:30.380Z,4.90
2018-03-02T05:21:58.028Z,5.93
2018-03-02T05:24:25.669Z,5.55
2018-03-02T05:26:54.076Z,4.33
2018-03-02T05:29:21.677Z,4.85
2018-03-02T05:31:49.464Z,5.80
2018-03-02T05:34:17.433Z,5.40
2018-03-02T05:36:45.097Z,5.45
2018-03-02T05:39:12.757Z,5.50
2018-03-02T05:41:40.381Z,4.95
2018-03-02T05:44:08.761Z,5.28
2018-03-02T05:46:36.427Z,5.45
2018-03-02T05:49:04.088Z,5.20
2018-03-02T05:51:32.499Z,5.97
2018-03-02T05:54:00.127Z,4.78
2018-03-02T05:56:28.542Z,4.57
2018-03-02T05:58:56.194Z,5.37
2018-03-02T06:01:24.643Z,5.37
2018-03-02T06:03:52.273Z,5.70
2018-03-02T06:06:20.215Z,5.03
2018-03-02T06:08:48.629Z,5.03
2018-03-02T06:11:16.278Z,5.32
2018-03-02T06:13:43.986Z,5.35
2018-03-02T06:16:11.649Z,5.23
2018-03-02T06:18:40.814Z,5.37
2018-03-02T06:21:08.503Z,4.97
2018-03-02T06:23:36.133Z,5.12
2018-03-02T06:26:04.517Z,5.57
2018-03-02T06:28:33.002Z,5.07
2018-03-02T06:31:01.435Z,5.03
2018-03-02T06:33:29.088Z,5.03
2018-03-02T06:35:57.183Z,5.22
2018-03-02T06:38:24.856Z,5.23
2018-03-02T06:40:52.895Z,5.35
2018-03-02T06:43:20.630Z,5.37
2018-03-02T06:45:49.860Z,4.70
2018-03-02T06:48:17.525Z,5.28
2018-03-02T06:50:45.148Z,6.17
2018-03-02T06:53:12.896Z,5.45
2018-03-02T06:55:41.324Z,4.35
2018-03-02T06:58:09.758Z,5.68
2018-03-02T07:00:37.850Z,5.45
2018-03-02T07:03:05.510Z,5.23
2018-03-02T07:05:33.178Z,5.93
2018-03-02T07:08:00.800Z,5.75
2018-03-02T07:10:28.437Z,5.50
2018-03-02T07:12:57.020Z,6.47
2018-03-02T07:15:26.112Z,6.20
2018-03-02T07:17:54.556Z,5.43
2018-03-02T07:20:22.237Z,5.78
2018-03-02T07:22:49.878Z,6.62
2018-03-02T07:25:17.568Z,6.22
2018-03-02T07:27:45.196Z,5.53
2018-03-02T07:30:13.647Z,6.10
2018-03-02T07:32:41.336Z,6.40
2018-03-02T07:35:08.964Z,5.87
2018-03-02T07:37:36.859Z,5.85
2018-03-02T07:40:04.522Z,6.75
2018-03-02T07:42:32.156Z,6.90
2018-03-02T07:44:59.814Z,6.60
2018-03-02T07:47:27.472Z,6.75
2018-03-02T07:49:55.301Z,7.40
2018-03-02T07:52:23.277Z,6.57
2018-03-02T07:54:51.712Z,7.72
2018-03-02T07:57:19.909Z,6.45
2018-03-02T07:59:47.550Z,7.60
2018-03-02T08:02:15.281Z,8.37
2018-03-02T08:04:43.739Z,8.77
2018-03-02T08:07:12.159Z,7.60
2018-03-02T08:09:41.248Z,9.30
2018-03-02T08:12:08.907Z,7.62
2018-03-02T08:14:37.298Z,8.48
2018-03-02T08:17:05.281Z,7.60
2018-03-02T08:19:33.839Z,7.80
2018-03-02T08:22:02.459Z,8.07
2018-03-02T08:24:30.925Z,8.82
2018-03-02T08:26:58.572Z,8.55
2018-03-02T08:29:27.099Z,8.15
2018-03-02T08:31:55.498Z,8.02
2018-03-02T08:34:23.126Z,7.22
2018-03-02T08:36:52.106Z,7.93
2018-03-02T08:39:19.765Z,7.07
2018-03-02T08:41:47.435Z,8.48
2018-03-02T08:44:15.622Z,7.30
2018-03-02T08:46:43.376Z,7.53
2018-03-02T08:49:11.175Z,8.07
2018-03-02T08:51:38.901Z,7.82
2018-03-02T08:54:06.624Z,8.17
2018-03-02T08:56:34.302Z,8.18
2018-03-02T08:59:02.749Z,7.93
2018-03-02T09:01:30.404Z,8.18
2018-03-02T09:03:58.078Z,8.00
2018-03-02T09:06:25.760Z,8.15
2018-03-02T09:08:54.891Z,7.85
2018-03-02T09:11:23.789Z,7.85
2018-03-02T09:13:52.198Z,8.60
2018-03-02T09:16:19.828Z,8.07
2018-03-02T09:18:47.515Z,8.77
2018-03-02T09:21:15.955Z,8.13
2018-03-02T09:23:43.627Z,8.85
2018-03-02T09:26:12.148Z,8.77
2018-03-02T09:28:40.539Z,8.43
2018-03-02T09:31:08.120Z,8.63
2018-03-02T09:33:35.773Z,9.32
2018-03-02T09:36:04.318Z,7.82
2018-03-02T09:38:31.937Z,9.05
2018-03-02T09:40:59.676Z,9.10
2018-03-02T09:43:28.088Z,9.30
2018-03-02T09:45:55.702Z,10.17
2018-03-02T09:48:23.372Z,9.30
2018-03-02T09:50:50.989Z,8.40
2018-03-02T09:53:18.670Z,9.95
2018-03-02T09:55:46.326Z,9.18
2018-03-02T09:58:13.991Z,9.32
2018-03-02T10:00:41.629Z,9.95
2018-03-02T10:03:10.031Z,10.55
2018-03-02T10:05:37.720Z,10.40
2018-03-02T10:08:05.380Z,10.57
2018-03-02T10:10:33.041Z,10.20
2018-03-02T10:13:00.716Z,10.73
2018-03-02T10:15:29.098Z,10.85
2018-03-02T10:17:56.726Z,10.75
2018-03-02T10:20:24.393Z,11.15
2018-03-02T10:22:53.739Z,10.82
2018-03-02T10:25:21.388Z,11.43
2018-03-02T10:27:49.018Z,10.35
2018-03-02T10:30:16.726Z,11.57
2018-03-02T10:32:44.377Z,10.50
2018-03-02T10:35:12.808Z,10.50
2018-03-02T10:37:40.472Z,10.65
2018-03-02T10:40:08.431Z,10.95
2018-03-02T10:42:36.094Z,9.90
2018-03-02T10:45:04.358Z,11.50
2018-03-02T10:47:33.465Z,10.75
2018-03-02T10:50:01.880Z,11.38
2018-03-02T10:52:29.546Z,8.88
2018-03-02T10:54:57.215Z,10.77
2018-03-02T10:57:24.866Z,11.23
2018-03-02T10:59:52.521Z,10.60
2018-03-02T11:02:20.783Z,10.43
2018-03-02T11:04:48.407Z,9.85
2018-03-02T11:07:16.063Z,10.15
2018-03-02T11:09:43.784Z,9.10
2018-03-02T11:12:12.235Z,10.50
2018-03-02T11:14:40.703Z,8.85
2018-03-02T11:17:08.356Z,9.77
2018-03-02T11:19:36.013Z,9.65
2018-03-02T11:22:04.015Z,9.70
2018-03-02T11:24:31.651Z,10.05
2018-03-02T11:26:59.274Z,9.85
2018-03-02T11:29:26.956Z,9.00
2018-03-02T11:31:55.357Z,8.75
2018-03-02T11:34:23.047Z,9.00
2018-03-02T11:36:50.699Z,8.95
2018-03-02T11:39:18.335Z,9.43
2018-03-02T11:41:46.006Z,9.23
2018-03-02T11:44:14.963Z,9.23
2018-03-02T11:46:42.606Z,9.30
2018-03-02T11:49:10.270Z,9.55
2018-03-02T11:51:37.958Z,8.70
2018-03-02T11:54:05.655Z,9.55
2018-03-02T11:56:33.262Z,8.73
2018-03-02T11:59:00.940Z,8.68
2018-03-02T12:01:28.569Z,8.93
2018-03-02T12:03:57.005Z,8.20
2018-03-02T12:06:24.645Z,9.00
2018-03-02T12:08:52.283Z,8.23
2018-03-02T12:11:20.055Z,9.13
2018-03-02T12:13:48.467Z,8.07
2018-03-02T12:16:16.137Z,7.87
2018-03-02T12:18:43.811Z,7.40
2018-03-02T12:21:11.446Z,8.38
2018-03-02T12:23:39.130Z,8.57
2018-03-02T12:26:07.408Z,8.50
2018-03-02T12:28:35.109Z,8.20
2018-03-02T12:31:02.838Z,7.82
2018-03-02T12:33:31.221Z,8.80
2018-03-02T12:35:59.671Z,8.68
2018-03-02T12:38:27.882Z,8.10
2018-03-02T12:40:55.553Z,8.50
2018-03-02T12:43:23.209Z,8.32
2018-03-02T12:45:51.634Z,9.10
2018-03-02T12:48:19.355Z,9.23
2018-03-02T12:50:48.242Z,8.98
2018-03-02T12:53:16.661Z,8.30
2018-03-02T12:55:44.365Z,9.02
2018-03-02T12:58:12.026Z,9.40
2018-03-02T13:00:39.723Z,8.95
2018-03-02T13:03:07.361Z,9.07
2018-03-02T13:05:35.049Z,8.38
2018-03-02T13:08:02.723Z,8.57
2018-03-02T13:10:30.380Z,8.15
2018-03-02T13:12:58.514Z,8.20
2018-03-02T13:15:26.171Z,9.00
2018-03-02T13:17:54.551Z,8.73
2018-03-02T13:20:22.189Z,8.43
2018-03-02T13:22:49.858Z,9.00
2018-03-02T13:25:17.513Z,8.13
2018-03-02T13:27:56.962Z,8.18
2018-03-02T13:30:24.593Z,8.90
2018-03-02T13:33:04.112Z,9.52
2018-03-02T13:35:31.748Z,9.18
2018-03-02T13:38:00.176Z,9.00
2018-03-02T13:40:54.705Z,8.85
2018-03-02T13:43:23.111Z,9.20
2018-03-02T13:45:50.761Z,9.63
2018-03-02T13:48:40.023Z,9.10
2018-03-02T13:51:08.400Z,9.23
2018-03-02T13:53:36.044Z,9.45
2018-03-02T13:56:03.694Z,8.93
2018-03-02T13:58:31.311Z,8.98
2018-03-02T14:00:59.707Z,9.18
2018-03-02T14:03:39.273Z,8.48
2018-03-02T14:06:06.911Z,10.00
2018-03-02T14:08:34.532Z,8.95
2018-03-02T14:11:02.184Z,9.00
2018-03-02T14:13:29.818Z,8.55
2018-03-02T14:15:58.910Z,9.27
2018-03-02T14:18:26.572Z,9.48
2018-03-02T14:20:54.239Z,9.43
2018-03-02T14:23:22.715Z,9.65
2018-03-02T14:25:51.290Z,9.43
2018-03-02T14:28:19.733Z,8.53
2018-03-02T14:30:47.371Z,9.20
2018-03-02T14:33:15.035Z,9.30
2018-03-02T14:35:43.491Z,9.35
2018-03-02T14:38:11.879Z,8.75
2018-03-02T14:40:39.555Z,9.23
2018-03-02T14:43:08.119Z,8.88
2018-03-02T14:45:36.514Z,8.50
2018-03-02T14:48:04.279Z,9.50
2018-03-02T14:50:31.946Z,8.75
2018-03-02T14:52:59.959Z,8.90
2018-03-02T14:55:27.637Z,7.45
2018-03-02T14:57:55.294Z,7.95
2018-03-02T15:00:23.314Z,8.00
2018-03-02T15:02:51.954Z,8.40
2018-03-02T15:05:19.629Z,8.02
2018-03-02T15:07:47.638Z,9.02
2018-03-02T15:10:15.321Z,8.23
2018-03-02T15:12:44.183Z,8.70
2018-03-02T15:15:11.912Z,7.65
2018-03-02T15:17:39.602Z,7.82
2018-03-02T15:20:07.270Z,8.13
2018-03-02T15:22:34.884Z,7.50
2018-03-02T15:25:03.412Z,8.10
2018-03-02T15:27:31.087Z,7.93
2018-03-02T15:29:58.848Z,8.15
2018-03-02T15:32:26.503Z,7.32
2018-03-02T15:34:54.152Z,7.07
2018-03-02T15:37:21.834Z,7.45
2018-03-02T15:39:49.427Z,7.82
2018-03-02T15:42:17.108Z,7.80
2018-03-02T15:44:44.770Z,8.03
2018-03-02T15:47:12.408Z,7.65
2018-03-02T15:49:40.078Z,7.57
2018-03-02T15:52:07.740Z,7.78
2018-03-02T15:54:35.363Z,7.30
2018-03-02T15:57:03.901Z,7.87
2018-03-02T15:59:32.892Z,6.97
2018-03-02T16:02:01.012Z,7.80
2018-03-02T16:04:29.554Z,8.25
2018-03-02T16:06:57.206Z,7.60
2018-03-02T16:09:24.817Z,7.30
2018-03-02T16:11:52.564Z,8.17
2018-03-02T16:14:20.184Z,8.33
2018-03-02T16:16:48.599Z,7.60
2018-03-02T16:19:16.362Z,7.90
2018-03-02T16:21:44.661Z,8.00
2018-03-02T16:24:12.339Z,7.45
2018-03-02T16:26:40.015Z,8.15
2018-03-02T16:29:07.641Z,7.80
2018-03-02T16:31:36.003Z,7.90
2018-03-02T16:34:04.442Z,7.60
2018-03-02T16:36:32.309Z,7.90
2018-03-02T16:38:59.971Z,8.00
2018-03-02T16:41:28.851Z,7.73
2018-03-02T16:43:56.482Z,8.25
2018-03-02T16:46:24.148Z,7.55
2018-03-02T16:48:51.868Z,7.20
2018-03-02T16:51:19.808Z,7.55
2018-03-02T16:53:47.464Z,7.55
2018-03-02T16:56:16.217Z,7.30
2018-03-02T16:58:43.946Z,7.32
2018-03-02T17:01:11.727Z,6.78
2018-03-02T17:03:39.394Z,7.22
2018-03-02T17:06:06.996Z,7.20
2018-03-02T17:08:34.696Z,7.57
2018-03-02T17:11:03.762Z,6.75
2018-03-02T17:13:31.566Z,7.32
2018-03-02T17:16:00.914Z,6.82
2018-03-02T17:18:28.564Z,6.30
2018-03-02T17:20:56.285Z,6.60
2018-03-02T17:23:26.359Z,6.90
2018-03-02T17:25:54.505Z,6.47
2018-03-02T17:28:23.384Z,6.03
2018-03-02T17:30:51.794Z,6.10
2018-03-02T17:33:20.365Z,6.70
2018-03-02T17:35:48.066Z,7.03
2018-03-02T17:38:15.709Z,6.70
2018-03-02T17:40:44.423Z,6.30
2018-03-02T17:43:13.066Z,6.62
2018-03-02T17:45:40.726Z,5.87
2018-03-02T17:48:08.405Z,6.70
2018-03-02T17:50:36.821Z,6.45
2018-03-02T17:53:04.502Z,6.50
2018-03-02T17:55:32.167Z,6.25
2018-03-02T17:57:59.851Z,6.53
2018-03-02T18:00:27.970Z,6.10
2018-03-02T18:02:55.599Z,6.22
2018-03-02T18:05:23.335Z,6.12
2018-03-02T18:07:50.943Z,6.60
2018-03-02T18:10:18.922Z,6.50
2018-03-02T18:12:46.611Z,6.57
2018-03-02T18:15:16.134Z,6.68
2018-03-02T18:17:44.575Z,7.37
2018-03-02T18:20:12.202Z,5.97
2018-03-02T18:22:39.898Z,6.43
2018-03-02T18:25:07.567Z,6.45
2018-03-02T18:27:35.527Z,6.50
2018-03-02T18:30:03.176Z,7.12
2018-03-02T18:32:31.677Z,6.72
2018-03-02T18:34:59.339Z,6.65
2018-03-02T18:37:27.874Z,6.30
2018-03-02T18:39:55.486Z,6.40
2018-03-02T18:42:23.161Z,7.07
2018-03-02T18:44:50.797Z,6.43
2018-03-02T18:47:19.233Z,7.15
2018-03-02T18:49:47.188Z,6.22
2018-03-02T18:52:14.818Z,6.62
2018-03-02T18:54:43.329Z,6.90
2018-03-02T18:57:10.989Z,7.05
2018-03-02T18:59:38.626Z,6.70
2018-03-02T19:02:06.328Z,6.45
2018-03-02T19:04:34.298Z,7.03
2018-03-02T19:07:02.720Z,7.60
2018-03-02T19:09:30.705Z,7.57
2018-03-02T19:11:58.385Z,7.45
2018-03-02T19:14:26.875Z,7.20
2018-03-02T19:16:54.506Z,7.45
2018-03-02T19:19:22.126Z,7.75
2018-03-02T19:21:50.558Z,7.30
2018-03-02T19:24:18.183Z,7.72
2018-03-02T19:26:46.614Z,7.80
2018-03-02T19:29:14.254Z,7.85
2018-03-02T19:31:41.905Z,7.93
2018-03-02T19:34:10.285Z,7.55
2018-03-02T19:36:38.751Z,7.35
2018-03-02T19:39:06.428Z,7.03
2018-03-02T19:41:34.114Z,7.22
2018-03-02T19:44:02.555Z,8.13
2018-03-02T19:46:30.198Z,8.43
2018-03-02T19:48:59.287Z,8.25
2018-03-02T19:51:26.990Z,7.78
2018-03-02T19:53:54.629Z,7.50
2018-03-02T19:56:22.298Z,7.78
2018-03-02T19:58:49.929Z,8.80
2018-03-02T20:01:17.574Z,7.67
2018-03-02T20:03:45.198Z,7.87
2018-03-02T20:06:13.723Z,8.10
2018-03-02T20:08:41.375Z,8.33
2018-03-02T20:11:09.062Z,8.52
2018-03-02T20:13:36.725Z,7.70
2018-03-02T20:16:04.384Z,7.85
2018-03-02T20:18:32.016Z,7.90
2018-03-02T20:20:59.690Z,8.63
2018-03-02T20:23:27.329Z,8.25
2018-03-02T20:25:56.049Z,8.10
2018-03-02T20:28:23.740Z,8.77
2018-03-02T20:30:51.361Z,8.05
2018-03-02T20:33:20.073Z,7.22
2018-03-02T20:35:47.698Z,7.87
2018-03-02T20:38:15.363Z,8.10
2018-03-02T20:40:43.057Z,8.13
2018-03-02T20:43:10.686Z,8.13
2018-03-02T20:45:38.309Z,8.05
2018-03-02T20:48:05.973Z,8.18
2018-03-02T20:50:33.617Z,8.07
2018-03-02T20:53:02.368Z,7.45
2018-03-02T20:55:29.991Z,8.80
2018-03-02T20:57:57.607Z,8.18
2018-03-02T21:00:25.310Z,8.25
2018-03-02T21:02:53.681Z,7.90
2018-03-02T21:05:21.293Z,7.93
2018-03-02T21:07:49.011Z,8.43
2018-03-02T21:10:16.616Z,8.33
2018-03-02T21:12:44.263Z,8.10
2018-03-02T21:15:12.637Z,8.43
2018-03-02T21:17:40.226Z,8.07
2018-03-02T21:20:07.860Z,8.00
2018-03-02T21:22:35.465Z,7.50
2018-03-02T21:25:03.795Z,8.77
2018-03-02T21:27:32.122Z,8.20
2018-03-02T21:29:59.761Z,8.27
2018-03-02T21:32:28.138Z,7.50
2018-03-02T21:34:56.560Z,7.78
2018-03-02T21:37:24.153Z,7.87
2018-03-02T21:39:51.783Z,8.38
2018-03-02T21:42:20.190Z,8.20
2018-03-02T21:44:47.833Z,7.62
2018-03-02T21:47:15.529Z,8.23
2018-03-02T21:49:43.158Z,7.95
2018-03-02T21:52:11.558Z,8.90
2018-03-02T21:54:39.676Z,8.88
2018-03-02T21:57:07.329Z,8.30
2018-03-02T21:59:34.951Z,7.80
2018-03-02T22:02:03.370Z,8.07
2018-03-02T22:04:31.011Z,8.68
2018-03-02T22:06:58.618Z,8.18
2018-03-02T22:09:26.252Z,8.52
2018-03-02T22:11:53.865Z,8.02
2018-03-02T22:14:21.499Z,8.13
2018-03-02T22:16:49.114Z,8.70
2018-03-02T22:19:16.747Z,8.23
2018-03-02T22:21:44.773Z,7.97
2018-03-02T22:24:13.125Z,9.50
2018-03-02T22:26:40.736Z,8.43
2018-03-02T22:29:08.395Z,8.05
2018-03-02T22:31:36.793Z,9.00
2018-03-02T22:34:04.426Z,8.55
2018-03-02T22:36:32.431Z,8.25
2018-03-02T22:39:00.029Z,8.68
2018-03-02T22:41:27.650Z,8.65
2018-03-02T22:43:56.038Z,7.85
2018-03-02T22:46:24.791Z,9.07
2018-03-02T22:48:52.410Z,8.43
2018-03-02T22:51:20.071Z,8.32
2018-03-02T22:53:47.675Z,8.93
2018-03-02T22:56:15.608Z,8.15
2018-03-02T22:58:43.235Z,9.25
2018-03-02T23:01:10.846Z,8.00
2018-03-02T23:03:38.478Z,7.80
2018-03-02T23:06:06.862Z,8.90
2018-03-02T23:08:34.494Z,7.75
2018-03-02T23:11:02.080Z,7.67
2018-03-02T23:13:29.692Z,7.82
2018-03-02T23:15:57.309Z,8.93
2018-03-02T23:18:24.959Z,7.60
2018-03-02T23:20:52.589Z,7.00
2018-03-02T23:23:20.253Z,9.05
2018-03-02T23:25:47.945Z,7.00
2018-03-02T23:28:15.553Z,7.78
2018-03-02T23:30:43.957Z,6.67
2018-03-02T23:33:12.332Z,8.57
2018-03-02T23:35:40.726Z,8.13
2018-03-02T23:38:09.105Z,7.62
2018-03-02T23:40:37.524Z,7.93
2018-03-02T23:43:05.135Z,7.80
2018-03-02T23:45:32.775Z,7.22
2018-03-02T23:48:00.376Z,8.52
2018-03-02T23:50:28.014Z,8.50
2018-03-02T23:52:55.671Z,7.95
2018-03-02T23:55:23.312Z,7.03
2018-03-02T23:57:50.945Z,8.93
